Time,TemperatureF,DewpointF,PressureIn,WindDirection,WindDirectionDegrees,WindSpeedMPH,WindSpeedGustMPH,Humidity,HourlyPrecipIn,Conditions,Clouds,dailyrainin,SolarRadiationWatts/m^2,SoftwareType,DateUTC
2013-02-03 00:22:00,-3.0,-9.0,-100.00,WNW,286,0.0,2.0,76,0.00,,,0.00,1.000000,,2013-02-03 05:22:00,
2013-02-03 00:32:00,-3.0,-9.0,-100.00,WNW,286,0.0,2.0,76,0.00,,,0.00,1.000000,,2013-02-03 05:32:00,
2013-02-03 00:42:00,-3.0,-9.0,-100.00,WNW,286,0.0,2.0,76,0.00,,,0.00,1.000000,,2013-02-03 05:42:00,
2013-02-03 00:52:00,-3.0,-9.0,-100.00,WNW,286,0.0,2.0,76,0.00,,,0.00,1.000000,,2013-02-03 05:52:00,
2013-02-03 01:21:00,-3.0,-9.0,-100.00,WSW,247,0.0,1.0,76,0.00,,,0.00,1.000000,,2013-02-03 06:21:00,
2013-02-03 01:32:00,-3.0,-9.0,-100.00,WSW,247,0.0,1.0,76,0.00,,,0.00,1.000000,,2013-02-03 06:32:00,
2013-02-03 01:41:00,-3.0,-9.0,-100.00,WSW,247,0.0,1.0,76,0.00,,,0.00,1.000000,,2013-02-03 06:41:00,
2013-02-03 01:52:00,-3.0,-9.0,-100.00,WSW,247,0.0,1.0,76,0.00,,,0.00,1.000000,,2013-02-03 06:52:00,
2013-02-03 02:21:00,-1.0,-6.0,-100.00,South,190,2.0,4.0,77,0.00,,,0.00,1.000000,,2013-02-03 07:21:00,
2013-02-03 02:31:00,-1.0,-6.0,-100.00,South,190,2.0,4.0,77,0.00,,,0.00,1.000000,,2013-02-03 07:31:00,
2013-02-03 02:42:00,-1.0,-6.0,-100.00,South,190,2.0,4.0,77,0.00,,,0.00,1.000000,,2013-02-03 07:42:00,
2013-02-03 02:52:00,-1.0,-6.0,-100.00,South,190,2.0,4.0,77,0.00,,,0.00,1.000000,,2013-02-03 07:52:00,
2013-02-03 03:22:00,1.0,-4.0,-100.00,SSW,197,1.0,3.0,78,0.00,,,0.00,1.000000,,2013-02-03 08:22:00,
2013-02-03 03:32:00,1.0,-4.0,-100.00,SSW,197,1.0,3.0,78,0.00,,,0.00,1.000000,,2013-02-03 08:32:00,
2013-02-03 03:41:00,1.0,-4.0,-100.00,SSW,197,1.0,3.0,78,0.00,,,0.00,1.000000,,2013-02-03 08:41:00,
2013-02-03 03:52:00,1.0,-4.0,-100.00,SSW,197,1.0,3.0,78,0.00,,,0.00,1.000000,,2013-02-03 08:52:00,
2013-02-03 04:21:00,2.0,-3.0,-100.00,SW,217,2.0,4.0,78,0.00,,,-99.99,1.000000,,2013-02-03 09:21:00,
2013-02-03 04:31:00,2.0,-3.0,-100.00,SW,217,2.0,4.0,78,0.00,,,-99.99,1.000000,,2013-02-03 09:31:00,
2013-02-03 04:42:00,2.0,-3.0,-100.00,SW,217,2.0,4.0,78,0.00,,,-99.99,1.000000,,2013-02-03 09:42:00,
2013-02-03 04:51:00,2.0,-3.0,-100.00,SW,217,2.0,4.0,78,0.00,,,-99.99,1.000000,,2013-02-03 09:51:00,
2013-02-03 05:21:00,3.0,-3.0,-100.00,SW,230,3.0,8.0,77,0.00,,,0.00,1.000000,,2013-02-03 10:21:00,
2013-02-03 05:31:00,3.0,-3.0,-100.00,SW,230,3.0,8.0,77,0.00,,,0.00,1.000000,,2013-02-03 10:31:00,
2013-02-03 05:42:00,3.0,-3.0,-100.00,SW,230,3.0,8.0,77,0.00,,,0.00,1.000000,,2013-02-03 10:42:00,
2013-02-03 05:52:00,3.0,-3.0,-100.00,SW,230,3.0,8.0,77,0.00,,,0.00,1.000000,,2013-02-03 10:52:00,
2013-02-03 06:22:00,3.0,-3.0,-100.00,SW,223,3.0,8.0,77,0.00,,,0.00,1.000000,,2013-02-03 11:22:00,
2013-02-03 06:32:00,3.0,-3.0,-100.00,SW,223,3.0,8.0,77,0.00,,,0.00,1.000000,,2013-02-03 11:32:00,
2013-02-03 06:42:00,3.0,-3.0,-100.00,SW,223,3.0,8.0,77,0.00,,,0.00,1.000000,,2013-02-03 11:42:00,
2013-02-03 06:52:00,3.0,-3.0,-100.00,SW,223,3.0,8.0,77,0.00,,,0.00,1.000000,,2013-02-03 11:52:00,
2013-02-03 07:22:00,4.0,-1.0,-100.00,WSW,247,3.0,9.0,78,0.00,,,0.00,1.000000,,2013-02-03 12:22:00,
2013-02-03 07:32:00,4.0,-1.0,-100.00,WSW,247,3.0,9.0,78,0.00,,,0.00,1.000000,,2013-02-03 12:32:00,
2013-02-03 07:42:00,4.0,-1.0,-100.00,WSW,247,3.0,9.0,78,0.00,,,0.00,1.000000,,2013-02-03 12:42:00,
2013-02-03 07:53:00,4.0,-1.0,-100.00,WSW,247,3.0,9.0,78,0.00,,,0.00,1.000000,,2013-02-03 12:53:00,
2013-02-03 08:21:00,5.0,0.0,-100.00,West,270,4.0,9.0,79,0.00,,,0.00,1.000000,,2013-02-03 13:21:00,
2013-02-03 08:32:00,5.0,0.0,-100.00,West,270,4.0,9.0,79,0.00,,,0.00,1.000000,,2013-02-03 13:32:00,
2013-02-03 08:42:00,5.0,0.0,-100.00,West,270,4.0,9.0,79,0.00,,,0.00,1.000000,,2013-02-03 13:42:00,
2013-02-03 08:52:00,5.0,0.0,-100.00,West,270,4.0,9.0,79,0.00,,,0.00,1.000000,,2013-02-03 13:52:00,
2013-02-03 09:21:00,5.0,0.0,-100.00,West,275,3.0,9.0,79,0.00,,,0.00,2.000000,,2013-02-03 14:21:00,
2013-02-03 09:32:00,5.0,0.0,-100.00,West,275,3.0,9.0,79,0.00,,,0.00,2.000000,,2013-02-03 14:32:00,
2013-02-03 09:42:00,5.0,0.0,-100.00,West,275,3.0,9.0,79,0.00,,,0.00,2.000000,,2013-02-03 14:42:00,
2013-02-03 09:52:00,5.0,0.0,-100.00,West,275,3.0,9.0,79,0.00,,,0.00,2.000000,,2013-02-03 14:52:00,
2013-02-03 10:22:00,8.0,3.0,-100.00,NW,325,6.0,13.0,80,0.00,,,0.00,9.000000,,2013-02-03 15:22:00,
2013-02-03 10:33:00,8.0,3.0,-100.00,NW,325,6.0,13.0,80,0.00,,,0.00,9.000000,,2013-02-03 15:33:00,
2013-02-03 10:42:00,8.0,3.0,-100.00,NW,325,6.0,13.0,80,0.00,,,0.00,9.000000,,2013-02-03 15:42:00,
2013-02-03 10:51:00,8.0,3.0,-100.00,NW,325,6.0,13.0,80,0.00,,,0.00,9.000000,,2013-02-03 15:51:00,
2013-02-03 11:22:00,8.0,2.0,-100.00,NNW,329,7.0,14.0,76,0.00,,,0.00,28.000000,,2013-02-03 16:22:00,
2013-02-03 11:33:00,8.0,2.0,-100.00,NNW,329,7.0,14.0,76,0.00,,,0.00,28.000000,,2013-02-03 16:33:00,
2013-02-03 11:42:00,8.0,2.0,-100.00,NNW,329,7.0,14.0,76,0.00,,,0.00,28.000000,,2013-02-03 16:42:00,
2013-02-03 11:52:00,8.0,2.0,-100.00,NNW,329,7.0,14.0,76,0.00,,,0.00,28.000000,,2013-02-03 16:52:00,
2013-02-03 12:22:00,8.0,0.0,-100.00,NW,324,6.0,17.0,68,0.00,,,0.00,53.000000,,2013-02-03 17:22:00,
2013-02-03 12:32:00,8.0,0.0,-100.00,NW,324,6.0,17.0,68,0.00,,,0.00,53.000000,,2013-02-03 17:32:00,
2013-02-03 12:42:00,8.0,0.0,-100.00,NW,324,6.0,17.0,68,0.00,,,0.00,53.000000,,2013-02-03 17:42:00,
2013-02-03 12:52:00,8.0,0.0,-100.00,NW,324,6.0,17.0,68,0.00,,,0.00,53.000000,,2013-02-03 17:52:00,
2013-02-03 13:23:00,8.0,0.0,-100.00,NNW,328,5.0,15.0,68,0.00,,,0.00,51.000000,,2013-02-03 18:23:00,
2013-02-03 13:33:00,8.0,0.0,-100.00,NNW,328,5.0,15.0,68,0.00,,,0.00,51.000000,,2013-02-03 18:33:00,
2013-02-03 13:42:00,8.0,0.0,-100.00,NNW,328,5.0,15.0,68,0.00,,,0.00,51.000000,,2013-02-03 18:42:00,
2013-02-03 13:51:00,8.0,0.0,-100.00,NNW,328,5.0,15.0,68,0.00,,,0.00,51.000000,,2013-02-03 18:51:00,
2013-02-03 14:22:00,9.0,1.0,-100.00,NW,312,6.0,14.0,70,0.00,,,0.00,70.000000,,2013-02-03 19:22:00,
2013-02-03 14:32:00,9.0,1.0,-100.00,NW,312,6.0,14.0,70,0.00,,,0.00,70.000000,,2013-02-03 19:32:00,
2013-02-03 14:42:00,9.0,1.0,-100.00,NW,312,6.0,14.0,70,0.00,,,0.00,70.000000,,2013-02-03 19:42:00,
2013-02-03 14:51:00,9.0,1.0,-100.00,NW,312,6.0,14.0,70,0.00,,,0.00,70.000000,,2013-02-03 19:51:00,
2013-02-03 15:21:00,9.0,1.0,-100.00,NW,307,6.0,17.0,69,0.00,,,0.00,160.000000,,2013-02-03 20:21:00,
2013-02-03 15:33:00,9.0,1.0,-100.00,NW,307,6.0,17.0,69,0.00,,,0.00,160.000000,,2013-02-03 20:33:00,
2013-02-03 15:42:00,9.0,1.0,-100.00,NW,307,6.0,17.0,69,0.00,,,0.00,160.000000,,2013-02-03 20:42:00,
2013-02-03 15:52:00,9.0,1.0,-100.00,NW,307,6.0,17.0,69,0.00,,,0.00,160.000000,,2013-02-03 20:52:00,
2013-02-03 16:21:00,10.0,2.0,-100.00,WNW,302,7.0,15.0,68,0.00,,,0.00,225.000000,,2013-02-03 21:21:00,
2013-02-03 16:32:00,10.0,2.0,-100.00,WNW,302,7.0,15.0,68,0.00,,,0.00,225.000000,,2013-02-03 21:32:00,
2013-02-03 16:42:00,10.0,2.0,-100.00,WNW,302,7.0,15.0,68,0.00,,,0.00,225.000000,,2013-02-03 21:42:00,
2013-02-03 16:51:00,10.0,2.0,-100.00,WNW,302,7.0,15.0,68,0.00,,,0.00,225.000000,,2013-02-03 21:51:00,
2013-02-03 17:21:00,6.0,-1.0,-100.00,West,281,5.0,13.0,71,0.00,,,0.00,99.000000,,2013-02-03 22:21:00,
2013-02-03 17:32:00,6.0,-1.0,-100.00,West,281,5.0,13.0,71,0.00,,,0.00,99.000000,,2013-02-03 22:32:00,
2013-02-03 17:42:00,6.0,-1.0,-100.00,West,281,5.0,13.0,71,0.00,,,0.00,99.000000,,2013-02-03 22:42:00,
2013-02-03 17:51:00,6.0,-1.0,-100.00,West,281,5.0,13.0,71,0.00,,,0.00,99.000000,,2013-02-03 22:51:00,
2013-02-03 18:22:00,4.0,-2.0,-100.00,West,266,3.0,12.0,75,0.00,,,0.00,20.000000,,2013-02-03 23:22:00,
2013-02-03 18:32:00,4.0,-2.0,-100.00,West,266,3.0,12.0,75,0.00,,,0.00,20.000000,,2013-02-03 23:32:00,
2013-02-03 18:42:00,4.0,-2.0,-100.00,West,266,3.0,12.0,75,0.00,,,0.00,20.000000,,2013-02-03 23:42:00,
2013-02-03 18:52:00,4.0,-2.0,-100.00,West,266,3.0,12.0,75,0.00,,,0.00,20.000000,,2013-02-03 23:52:00,
2013-02-03 19:22:00,4.0,-1.0,-100.00,West,260,2.0,8.0,78,0.00,,,0.00,2.000000,,2013-02-04 00:22:00,
2013-02-03 19:32:00,4.0,-1.0,-100.00,West,260,2.0,8.0,78,0.00,,,0.00,2.000000,,2013-02-04 00:32:00,
2013-02-03 19:42:00,4.0,-1.0,-100.00,West,260,2.0,8.0,78,0.00,,,0.00,2.000000,,2013-02-04 00:42:00,
2013-02-03 19:51:00,4.0,-1.0,-100.00,West,260,2.0,8.0,78,0.00,,,0.00,2.000000,,2013-02-04 00:51:00,
2013-02-03 20:21:00,4.0,-1.0,-100.00,SW,233,2.0,6.0,79,0.00,,,0.00,1.000000,,2013-02-04 01:21:00,
2013-02-03 20:32:00,4.0,-1.0,-100.00,SW,233,2.0,6.0,79,0.00,,,0.00,1.000000,,2013-02-04 01:32:00,
2013-02-03 20:41:00,4.0,-1.0,-100.00,SW,233,2.0,6.0,79,0.00,,,0.00,1.000000,,2013-02-04 01:41:00,
2013-02-03 20:52:00,4.0,-1.0,-100.00,SW,233,2.0,6.0,79,0.00,,,0.00,1.000000,,2013-02-04 01:52:00,
2013-02-03 21:21:00,4.0,-1.0,-100.00,SW,231,3.0,6.0,79,0.00,,,0.00,1.000000,,2013-02-04 02:21:00,
2013-02-03 21:32:00,4.0,-1.0,-100.00,SW,231,3.0,6.0,79,0.00,,,0.00,1.000000,,2013-02-04 02:32:00,
2013-02-03 21:41:00,4.0,-1.0,-100.00,SW,231,3.0,6.0,79,0.00,,,0.00,1.000000,,2013-02-04 02:41:00,
2013-02-03 21:52:00,4.0,-1.0,-100.00,SW,231,3.0,6.0,79,0.00,,,0.00,1.000000,,2013-02-04 02:52:00,
2013-02-03 22:21:00,3.0,-2.0,-100.00,SW,222,2.0,6.0,79,0.00,,,0.00,1.000000,,2013-02-04 03:21:00,
2013-02-03 22:32:00,3.0,-2.0,-100.00,SW,222,2.0,6.0,79,0.00,,,0.00,1.000000,,2013-02-04 03:32:00,
2013-02-03 22:42:00,3.0,-2.0,-100.00,SW,222,2.0,6.0,79,0.00,,,0.00,1.000000,,2013-02-04 03:42:00,
2013-02-03 22:51:00,3.0,-2.0,-100.00,SW,222,2.0,6.0,79,0.00,,,0.00,1.000000,,2013-02-04 03:51:00,
2013-02-03 23:21:00,1.0,-4.0,-100.00,SW,222,2.0,5.0,79,0.00,,,0.00,1.000000,,2013-02-04 04:21:00,
2013-02-03 23:32:00,1.0,-4.0,-100.00,SW,222,2.0,5.0,79,0.00,,,0.00,1.000000,,2013-02-04 04:32:00,
2013-02-03 23:42:00,1.0,-4.0,-100.00,SW,222,2.0,5.0,79,0.00,,,0.00,1.000000,,2013-02-04 04:42:00,
2013-02-03 23:52:00,1.0,-4.0,-100.00,SW,222,2.0,5.0,79,0.00,,,0.00,1.000000,,2013-02-04 04:52:00,